Flight Track Log - Related Links

Times and Time Zones

All times are in EDT time to prevent confusion due to time zone crossing. See the PDT4373 flight status page for this flight to view local times or setup timezone preferences in your user account.

Time Position Orientation Groundspeed Altitude Reporting Facility
EDT Latitude Longitude Course Direction KTS MPH feet Rate Location/Type
Thu 01:12:00 PM 41.7222 -75.8214 161° South  Level Estimated
Thu 01:13:00 PM 41.6614 -75.8017 162° South  Level Estimated
Thu 01:14:00 PM 41.6011 -75.7801 165° South  Level FlightAware Approximate
Thu 01:15:00 PM 41.5406 -75.7584 165° South  Level FlightAware Approximate
Thu 01:16:00 PM 41.4803 -75.7368 165° South  Level FlightAware Approximate
Thu 01:17:00 PM 41.4198 -75.7153 165° South  Level FlightAware Approximate
Thu 01:18:00 PM 41.3590 -75.6962 163° South  Level Estimated
Thu 01:19:00 PM 41.2988 -75.6744 165° South  Level FlightAware Approximate
Thu 01:20:00 PM 41.2385 -75.6526 165° South  Level FlightAware Approximate
Thu 01:21:00 PM 41.1783 -75.6308 165° South  Level FlightAware Approximate
Thu 01:22:00 PM 41.1181 -75.6091 165° South  Level FlightAware Approximate
Thu 01:23:00 PM 41.0573 -75.5908 159° South  Level Estimated
Thu 01:24:00 PM 40.9964 -75.5725 163° South  Level Estimated
Thu 01:25:00 PM 40.9372 -75.5465 162° South  Level FlightAware Approximate
Thu 01:26:00 PM 40.8779 -75.5205 162° South  Level FlightAware Approximate
Thu 01:27:00 PM 40.8187 -75.4946 162° South  Level FlightAware Approximate
Thu 01:28:00 PM 40.7576 -75.4780 190° South  Level Estimated
Thu 01:29:00 PM 40.6953 -75.4833 184° South  Level FlightAware Approximate
Thu 01:30:00 PM 40.6330 -75.4886 184° South  Level FlightAware Approximate
Thu 01:31:00 PM 40.5725 -75.4687 187° South  Level Estimated
Thu 01:32:00 PM 40.5115 -75.4857 192° South  Level FlightAware Approximate
Thu 01:33:00 PM 40.4516 -75.4626 188° South  Level Estimated
Thu 01:33:43 PM 40.7000 -75.6500 143° Southeast 224 258 7,000  Level Philadelphia TRACON
Thu 01:34:00 PM 40.3915 -75.4850 196° South  Level FlightAware Approximate
Thu 01:34:31 PM 40.6500 -75.6500 180° South 223 257 7,000  Level Philadelphia TRACON
Thu 01:35:00 PM 40.3315 -75.5073 196° South  Level FlightAware Approximate
Thu 01:35:31 PM 40.6000 -75.6333 166° South 221 254 7,000  Level Philadelphia TRACON
Thu 01:36:00 PM 40.2745 -75.4740 143° Southeast  Level Estimated
Thu 01:36:31 PM 40.5333 -75.6167 169° South 220 253 7,000  Level Philadelphia TRACON
Thu 01:37:00 PM 40.2131 -75.4597 170° South  Level FlightAware Approximate
Thu 01:37:31 PM 40.4833 -75.6000 166° South 221 254 7,000  Level Philadelphia TRACON
Thu 01:38:00 PM 40.1571 -75.4236 159° South  Level Estimated
Thu 01:38:25 PM 40.4167 -75.5833 169° South 215 247 7,000  Level Philadelphia TRACON
Thu 01:39:00 PM 40.1011 -75.3875 143° Southeast  Level Estimated
Thu 01:39:31 PM 40.3667 -75.5500 153° Southeast 215 247 7,000  Level Philadelphia TRACON
Thu 01:40:26 PM 40.3167 -75.5000 143° Southeast 214 246 6,600 -700 Descending Philadelphia TRACON
Thu 01:41:31 PM 40.2667 -75.4667 153° Southeast 227 261 5,600 -768 Descending Philadelphia TRACON
Thu 01:42:31 PM 40.2000 -75.4167 150° Southeast 227 261 5,000 -645 Descending Philadelphia TRACON
Thu 01:43:32 PM 40.1667 -75.3833 143° Southeast 174 200 4,300 -744 Descending Philadelphia TRACON
Thu 01:44:32 PM 40.1167 -75.3500 153° Southeast 188 216 3,500 -1,000 Descending Philadelphia TRACON
Thu 01:45:32 PM 40.0667 -75.3333 166° South 177 204 2,300 -714 Descending Philadelphia TRACON
Thu 01:46:38 PM 40.0167 -75.3000 153° Southeast 150 173 2,000 -143 Descending Philadelphia TRACON
Thu 01:47:38 PM 39.9833 -75.2833 159° South 144 166 2,000 -300 Level Philadelphia TRACON
Thu 01:48:38 PM 39.9500 -75.2667 159° South 137 158 1,400 -650 Descending Philadelphia TRACON
Thu 01:49:38 PM 39.9167 -75.2500 159° South 145 167 700 -700 Descending Philadelphia TRACON

Login

Don't have an account? Register now (free) for customized features, flight alerts, and more!